Airport View

Enter AWOS ICAO identifier for current METAR.

ex. KFNL

KLRO 201225Z AUTO 00000KT 9SM CLR 07/06 A3007 RMK AO2

20 Nov 2019 12:26

Frequency: 118.625

Phone: 843-849-0438

Other Area AWOS: KCHS - KJZI - KMKS - KDYB

TAF KCHS 201134Z 2012/2112 30005KT P6SM SKC FM201400 35008KT P6SM SKC FM210400 02003KT P6SM FEW250